Spruce Grove, Canada
Current Conditions -  °F | °C
As of 10:00 PM on Monday 22 Dec 2014 (Local Time) from CZVL Reporting Station
Clear Clear  
Wind Chill: 24°   Ceiling: Unl
Heat Index: 32°   Visibility: 9mi
Dew Point: 23°   Wind: 10mph
Humidity: 69%   Direction: 270°W
Pressure: 30.05"   Gusts: NA
Location:  53.54°N, 113.9°W
Report Text: CZVL 230500Z AUTO 27009KT 9SM CLR 00/M05 A3005 RMK SLP207
Loading
Personal Weather Stations






























Interactive Weather Map New forecast layout! Learn more

10-Day Weather Forecast

Advertisements
Track Severe Weather on mobile